createdAt,value
2023-05-06T00:00:27.629Z,9
2023-05-06T00:03:15.738Z,9
2023-05-06T00:06:03.856Z,8.9
2023-05-06T00:08:51.787Z,8.8
2023-05-06T00:11:39.635Z,8.8
2023-05-06T00:14:27.362Z,8.8
2023-05-06T00:17:15.296Z,8.8
2023-05-06T00:20:03.097Z,8.8
2023-05-06T00:22:51.120Z,8.8
2023-05-06T00:25:39.408Z,8.8
2023-05-06T00:28:27.298Z,8.9
2023-05-06T00:31:15.314Z,8.9
2023-05-06T00:34:03.592Z,9
2023-05-06T00:36:51.365Z,9
2023-05-06T00:39:39.206Z,9
2023-05-06T00:42:27.122Z,9
2023-05-06T00:45:14.982Z,8.9
2023-05-06T00:48:02.712Z,8.9
2023-05-06T00:50:50.804Z,8.8
2023-05-06T00:53:38.430Z,8.8
2023-05-06T00:56:26.518Z,8.8
2023-05-06T00:59:14.491Z,8.8
2023-05-06T01:02:02.653Z,8.8
2023-05-06T01:04:50.712Z,8.8
2023-05-06T01:07:38.691Z,8.8
2023-05-06T01:10:26.512Z,8.7
2023-05-06T01:13:14.696Z,8.6
2023-05-06T01:16:02.902Z,8.6
2023-05-06T01:18:50.784Z,8.5
2023-05-06T01:21:38.534Z,8.5
2023-05-06T01:24:26.815Z,8.6
2023-05-06T01:27:14.455Z,8.6
2023-05-06T01:30:02.330Z,8.6
2023-05-06T01:32:50.407Z,8.6
2023-05-06T01:35:38.828Z,8.6
2023-05-06T01:38:26.534Z,8.6
2023-05-06T01:41:14.438Z,8.6
2023-05-06T01:44:02.229Z,8.6
2023-05-06T01:46:50.275Z,8.6
2023-05-06T01:49:38.068Z,8.6
2023-05-06T01:52:25.939Z,8.5
2023-05-06T01:55:13.716Z,8.4
2023-05-06T01:58:01.362Z,8.4
2023-05-06T02:00:49.174Z,8.3
2023-05-06T02:03:37.316Z,8.2
2023-05-06T02:06:25.773Z,8
2023-05-06T02:09:13.602Z,7.9
2023-05-06T02:12:01.333Z,7.8
2023-05-06T02:14:49.129Z,7.8
2023-05-06T02:17:36.978Z,7.8
2023-05-06T02:20:24.908Z,7.6
2023-05-06T02:23:12.717Z,7.6
2023-05-06T02:26:00.535Z,7.6
2023-05-06T02:28:48.294Z,7.7
2023-05-06T02:31:36.265Z,7.8
2023-05-06T02:34:24.161Z,8
2023-05-06T02:37:12.060Z,8
2023-05-06T02:39:59.988Z,7.9
2023-05-06T02:42:48.010Z,7.8
2023-05-06T02:45:36.240Z,7.8
2023-05-06T02:48:24.372Z,7.7
2023-05-06T02:51:12.044Z,7.7
2023-05-06T02:54:00.004Z,7.7
2023-05-06T02:56:47.950Z,7.7
2023-05-06T02:59:35.749Z,7.7
2023-05-06T03:02:23.557Z,7.6
2023-05-06T03:05:11.672Z,7.5
2023-05-06T03:07:59.913Z,7.5
2023-05-06T03:10:47.949Z,7.4
2023-05-06T03:13:35.923Z,7.4
2023-05-06T03:16:23.696Z,7.4
2023-05-06T03:19:11.465Z,7.5
2023-05-06T03:21:59.398Z,7.5
2023-05-06T03:24:47.229Z,7.6
2023-05-06T03:27:35.288Z,7.7
2023-05-06T03:30:23.231Z,7.8
2023-05-06T03:33:11.057Z,7.9
2023-05-06T03:35:58.826Z,8
2023-05-06T03:38:46.501Z,8
2023-05-06T03:41:34.239Z,8
2023-05-06T03:44:22.271Z,8.1
2023-05-06T03:47:10.549Z,8.2
2023-05-06T03:49:58.333Z,8.3
2023-05-06T03:52:46.204Z,8.4
2023-05-06T03:55:34.207Z,8.4
2023-05-06T03:58:21.953Z,8.6
2023-05-06T04:01:09.823Z,8.6
2023-05-06T04:03:58.081Z,8.8
2023-05-06T04:06:46.120Z,8.8
2023-05-06T04:09:34.025Z,8.9
2023-05-06T04:12:22.115Z,9
2023-05-06T04:15:10.185Z,9
2023-05-06T04:17:58.871Z,9.2
2023-05-06T04:20:47.100Z,9.2
2023-05-06T04:23:35.027Z,9.2
2023-05-06T04:26:22.843Z,9.2
2023-05-06T04:29:10.766Z,9.2
2023-05-06T04:31:58.685Z,9.2
2023-05-06T04:34:47.249Z,9.2
2023-05-06T04:37:35.659Z,9.2
2023-05-06T04:40:23.685Z,9.2
2023-05-06T04:43:11.671Z,9.3
2023-05-06T04:45:59.920Z,9.3
2023-05-06T04:48:47.995Z,9.4
2023-05-06T04:51:35.936Z,9.4
2023-05-06T04:54:23.878Z,9.4
2023-05-06T04:57:11.910Z,9.4
2023-05-06T04:59:59.674Z,9.4
2023-05-06T05:02:47.668Z,9.4
2023-05-06T05:05:35.983Z,9.5
2023-05-06T05:08:24.138Z,9.6
2023-05-06T05:11:12.076Z,9.6
2023-05-06T05:14:01.752Z,9.7
2023-05-06T05:16:50.310Z,9.8
2023-05-06T05:19:38.240Z,9.9
2023-05-06T05:22:26.051Z,10
2023-05-06T05:25:14.298Z,10.1
2023-05-06T05:28:02.657Z,10.2
2023-05-06T05:30:50.548Z,10.2
2023-05-06T05:33:38.625Z,10.3
2023-05-06T05:36:26.504Z,10.4
2023-05-06T05:39:14.338Z,10.5
2023-05-06T05:42:02.537Z,10.6
2023-05-06T05:44:50.678Z,10.7
2023-05-06T05:47:38.722Z,10.8
2023-05-06T05:50:26.660Z,10.9
2023-05-06T05:53:14.382Z,10.9
2023-05-06T05:56:02.162Z,11
2023-05-06T05:58:50.106Z,11.1
2023-05-06T06:01:38.225Z,11.3
2023-05-06T06:04:26.479Z,11.6
2023-05-06T06:07:14.400Z,11.9
2023-05-06T06:10:02.464Z,12.3
2023-05-06T06:12:50.211Z,12.7
2023-05-06T06:15:41.050Z,13.1
2023-05-06T06:18:29.463Z,13.7
2023-05-06T06:21:20.510Z,14
2023-05-06T06:24:08.339Z,14.1
2023-05-06T06:26:56.279Z,14.4
2023-05-06T06:29:44.073Z,14.8
2023-05-06T06:32:32.504Z,15.2
2023-05-06T06:35:20.754Z,15.6
2023-05-06T06:38:08.594Z,16
2023-05-06T06:40:56.343Z,16.5
2023-05-06T06:43:44.280Z,17
2023-05-06T06:46:32.189Z,17.6
2023-05-06T06:49:20.133Z,18
2023-05-06T06:52:08.058Z,18.4
2023-05-06T06:54:55.955Z,18.9
2023-05-06T06:57:43.846Z,19.2
2023-05-06T07:00:31.785Z,19.4
2023-05-06T07:03:19.906Z,19.3
2023-05-06T07:06:07.750Z,19.4
2023-05-06T07:08:55.710Z,19.9
2023-05-06T07:11:43.577Z,20.3
2023-05-06T07:14:31.559Z,20.4
2023-05-06T07:17:20.055Z,20.7
2023-05-06T07:20:08.140Z,20.7
2023-05-06T07:22:56.192Z,20.8
2023-05-06T07:25:44.203Z,21.1
2023-05-06T07:28:32.060Z,21.5
2023-05-06T07:31:19.975Z,22.1
2023-05-06T07:34:07.786Z,22.5
2023-05-06T07:36:55.464Z,23
2023-05-06T07:39:43.300Z,23.6
2023-05-06T07:42:31.180Z,24.2
2023-05-06T07:45:18.897Z,24.6
2023-05-06T07:48:06.758Z,24.6
2023-05-06T07:50:54.637Z,24.6
2023-05-06T07:53:42.280Z,24.7
2023-05-06T07:56:30.714Z,24.8
2023-05-06T07:59:18.653Z,24.9
2023-05-06T08:02:06.480Z,24.8
2023-05-06T08:04:54.396Z,24.7
2023-05-06T08:07:42.236Z,24.5
2023-05-06T08:10:29.991Z,24.4
2023-05-06T08:13:17.955Z,24.4
2023-05-06T08:16:06.119Z,24.4
2023-05-06T08:18:54.012Z,24.2
2023-05-06T08:21:41.738Z,24.1
2023-05-06T08:24:29.474Z,24
2023-05-06T08:27:17.203Z,23.7
2023-05-06T08:30:05.092Z,23.4
2023-05-06T08:32:53.144Z,23.2
2023-05-06T08:35:41.318Z,23.1
2023-05-06T08:38:28.956Z,22.9
2023-05-06T08:41:16.729Z,22.9
2023-05-06T08:44:04.260Z,22.9
2023-05-06T08:46:52.234Z,23.5
2023-05-06T08:49:40.169Z,24
2023-05-06T08:52:27.977Z,24.2
2023-05-06T08:55:15.550Z,24.3
2023-05-06T08:58:03.281Z,24.3
2023-05-06T09:00:50.869Z,24.5
2023-05-06T09:03:38.902Z,24.7
2023-05-06T09:06:26.800Z,24.8
2023-05-06T09:09:14.363Z,25.2
2023-05-06T09:12:01.841Z,25.5
2023-05-06T09:14:49.518Z,25.4
2023-05-06T09:17:37.367Z,25.2
2023-05-06T09:20:25.375Z,25.3
2023-05-06T09:23:13.118Z,25.5
2023-05-06T09:26:00.877Z,25.3
2023-05-06T09:28:48.449Z,25
2023-05-06T09:31:36.214Z,24.8
2023-05-06T09:34:23.832Z,24.7
2023-05-06T09:37:11.639Z,24.4
2023-05-06T09:39:59.530Z,24.6
2023-05-06T09:42:47.253Z,25
2023-05-06T09:45:34.778Z,25.2
2023-05-06T09:48:22.538Z,25.5
2023-05-06T09:51:10.063Z,25.6
2023-05-06T09:53:57.876Z,25.6
2023-05-06T09:56:45.679Z,25.6
2023-05-06T09:59:33.692Z,25.8
2023-05-06T10:02:21.507Z,26
2023-05-06T10:05:10.280Z,26.3
2023-05-06T10:07:58.844Z,26.5
2023-05-06T10:10:46.720Z,26.9
2023-05-06T10:13:34.623Z,27.2
2023-05-06T10:16:22.211Z,27.3
2023-05-06T10:19:09.866Z,27.1
2023-05-06T10:21:57.423Z,27.1
2023-05-06T10:24:45.002Z,27.2
2023-05-06T10:27:32.602Z,27.7
2023-05-06T10:30:20.308Z,27.8
2023-05-06T10:33:08.138Z,28.1
2023-05-06T10:35:55.796Z,28.3
2023-05-06T10:54:32.678Z,27.9
2023-05-06T10:57:18.581Z,27.9
2023-05-06T11:00:04.377Z,27.8
2023-05-06T11:56:06.182Z,26
2023-05-06T11:58:54.148Z,25.8
2023-05-06T12:01:42.030Z,25.7
2023-05-06T12:30:54.243Z,26.2
2023-05-06T12:33:41.997Z,26.5
2023-05-06T12:36:29.803Z,26.8
2023-05-06T12:39:17.623Z,27
2023-05-06T12:42:05.449Z,26.9
2023-05-06T12:44:53.127Z,26.9
2023-05-06T12:47:41.113Z,27.2
2023-05-06T12:50:29.369Z,27.2
2023-05-06T12:53:17.248Z,27
2023-05-06T12:56:04.921Z,26.5
2023-05-06T12:58:52.739Z,26.4
2023-05-06T13:01:40.616Z,26.9
2023-05-06T13:04:28.661Z,27.8
2023-05-06T13:07:16.314Z,28.4
2023-05-06T13:10:03.994Z,28.4
2023-05-06T13:12:51.633Z,28.5
2023-05-06T13:15:39.485Z,28.6
2023-05-06T13:18:27.121Z,28.5
2023-05-06T13:21:14.942Z,28.4
2023-05-06T13:24:02.732Z,28.6
2023-05-06T13:26:50.490Z,28.9
2023-05-06T13:29:38.170Z,29
2023-05-06T13:32:26.065Z,29.2
2023-05-06T13:35:13.895Z,29.1
2023-05-06T13:38:01.761Z,28.9
2023-05-06T13:40:49.466Z,28.7
2023-05-06T13:43:37.092Z,28.8
2023-05-06T13:46:24.777Z,28.6
2023-05-06T13:49:12.658Z,28.3
2023-05-06T13:52:00.391Z,28
2023-05-06T13:54:48.168Z,27.5
2023-05-06T13:57:38.777Z,27
2023-05-06T14:00:26.553Z,26.7
2023-05-06T14:03:14.338Z,26.7
2023-05-06T14:06:01.916Z,26.8
2023-05-06T14:08:49.599Z,27.1
2023-05-06T14:11:37.595Z,27.5
2023-05-06T14:14:25.315Z,27.5
2023-05-06T14:17:13.096Z,27.6
2023-05-06T14:20:00.677Z,27.5
2023-05-06T14:22:48.306Z,27.2
2023-05-06T14:25:36.232Z,27
2023-05-06T14:28:24.153Z,26.9
2023-05-06T15:31:14.567Z,18.6
2023-05-06T15:34:02.460Z,17.1
2023-05-06T15:36:50.291Z,16.6
2023-05-06T15:39:38.032Z,16.2
2023-05-06T15:42:25.908Z,15.8
2023-05-06T15:45:13.703Z,15.5
2023-05-06T15:48:02.020Z,15.2
2023-05-06T15:51:01.580Z,15
2023-05-06T15:53:49.377Z,14.8
2023-05-06T15:56:46.578Z,14.7
2023-05-06T15:59:34.389Z,14.6
2023-05-06T16:02:26.660Z,14.6
2023-05-06T16:05:16.057Z,14.5
2023-05-06T16:08:04.074Z,14.5
2023-05-06T16:10:52.152Z,14.4
2023-05-06T16:13:39.991Z,14.4
2023-05-06T16:16:29.913Z,14.4
2023-05-06T16:19:17.871Z,14.4
2023-05-06T16:22:05.956Z,14.4
2023-05-06T16:24:54.054Z,14.4
2023-05-06T16:27:41.832Z,14.4
2023-05-06T16:30:29.634Z,14.4
2023-05-06T16:33:17.441Z,14.4
2023-05-06T16:36:05.284Z,14.4
2023-05-06T16:38:53.086Z,14.5
2023-05-06T16:41:40.791Z,14.5
2023-05-06T16:44:28.430Z,14.6
2023-05-06T16:47:16.363Z,14.7
2023-05-06T16:50:04.567Z,14.8
2023-05-06T16:52:52.438Z,14.8
2023-05-06T16:55:40.457Z,14.9
2023-05-06T16:58:28.310Z,15
2023-05-06T17:01:15.983Z,14.9
2023-05-06T17:04:04.190Z,14.9
2023-05-06T17:06:52.004Z,14.9
2023-05-06T17:09:39.801Z,14.9
2023-05-06T17:12:27.883Z,14.9
2023-05-06T17:15:15.774Z,14.9
2023-05-06T17:18:03.628Z,14.9
2023-05-06T17:20:55.604Z,14.9
2023-05-06T17:23:45.071Z,14.9
2023-05-06T17:26:38.039Z,14.8
2023-05-06T17:29:27.178Z,14.8
2023-05-06T17:32:14.960Z,14.8
2023-05-06T17:35:03.826Z,14.8
2023-05-06T17:37:51.615Z,14.8
2023-05-06T17:40:39.256Z,14.8
2023-05-06T17:43:27.049Z,14.8
2023-05-06T17:46:15.978Z,14.8
2023-05-06T17:49:07.061Z,14.8
2023-05-06T17:51:54.828Z,14.8
2023-05-06T17:54:42.628Z,14.8
2023-05-06T17:57:30.397Z,14.8
2023-05-06T18:00:18.492Z,14.7
2023-05-06T18:03:06.963Z,14.7
2023-05-06T18:05:55.077Z,14.7
2023-05-06T18:08:42.756Z,14.6
2023-05-06T18:11:30.492Z,14.6
2023-05-06T18:14:18.111Z,14.6
